Time;durP1;ratioP1;P1;durP2;ratioP2;P2;SDS_P1;SDS_P2;PMS_P1;PMS_P2;Temp;Humidity;BMP_temperature;BMP_pressure;BME280_temperature;BME280_humidity;BME280_pressure;Samples;Min_cycle;Max_cycle;Signal;HPM_P1;HPM_P2
2021/04/13 00:00:05;;;;;;;;;;;;;;;8.88;73.35;100656.43;1719004;82;20363;-77
2021/04/13 00:02:44;;;;;;;;;;;;;;;8.87;73.39;100656.03;1719669;83;20238;-76
2021/04/13 00:05:33;;;;;;;;;;;;;;;8.87;73.48;100657.34;1716363;83;20670;-76
2021/04/13 00:08:03;;;;;;;;;;;;;;;8.88;73.56;100661.70;1707202;82;20491;-76
2021/04/13 00:10:36;;;;;;;;;;;;;;;8.88;73.59;100667.44;1653620;85;20512;-75
2021/04/13 00:13:05;;;;;;;;;;;;;;;8.88;73.66;100658.22;1678297;84;20233;-76
2021/04/13 00:15:36;;;;;;;;;;;;;;;8.87;73.74;100667.88;1725319;81;20221;-79
2021/04/13 00:18:04;;;;;;;;;;;;;;;8.87;73.85;100667.05;1664083;85;20480;-78
2021/04/13 00:20:35;;;;;;;;;;;;;;;8.84;73.94;100660.67;1707644;82;20586;-77
2021/04/13 00:23:02;;;;;;;;;;;;;;;8.85;74.00;100664.99;1711364;83;22096;-76
2021/04/13 00:25:33;;;;;;;;;;;;;;;8.84;74.04;100661.99;1711413;83;20491;-78
2021/04/13 00:28:01;;;;;;;;;;;;;;;8.84;74.13;100663.31;1711592;82;20220;-79
2021/04/13 00:30:47;;;;;;;;;;;;;;;8.83;74.19;100668.21;1706006;84;21225;-78
2021/04/13 00:33:16;;;;;;;;;;;;;;;8.81;74.23;100660.89;1678163;84;20506;-79
2021/04/13 00:35:49;;;;;;;;;;;;;;;8.80;74.30;100665.31;1677360;85;21905;-79
2021/04/13 00:38:29;;;;;;;;;;;;;;;8.79;74.34;100664.11;1680008;84;20389;-79
2021/04/13 00:41:03;;;;;;;;;;;;;;;8.78;74.38;100664.58;1676945;84;20224;-78
2021/04/13 00:43:31;;;;;;;;;;;;;;;8.77;74.48;100663.34;1683273;84;20411;-78
2021/04/13 00:45:58;;;;;;;;;;;;;;;8.75;74.53;100659.50;1729841;82;20262;-79
2021/04/13 00:48:34;;;;;;;;;;;;;;;8.76;74.52;100659.03;1728800;81;22077;-78
2021/04/13 00:51:14;;;;;;;;;;;;;;;8.76;74.57;100662.50;1719356;81;20222;-78
2021/04/13 00:53:41;;;;;;;;;;;;;;;8.76;74.58;100662.98;1728532;81;20219;-77
2021/04/13 00:56:11;;;;;;;;;;;;;;;8.76;74.62;100664.30;1732018;83;20901;-79
2021/04/13 00:58:44;;;;;;;;;;;;;;;8.74;74.65;100659.61;1731078;81;20251;-77
2021/04/13 01:01:21;;;;;;;;;;;;;;;8.73;74.67;100653.98;1720034;83;22093;-77
2021/04/13 01:04:02;;;;;;;;;;;;;;;8.73;74.67;100646.92;1729438;81;20350;-78
2021/04/13 01:06:32;;;;;;;;;;;;;;;8.73;74.69;100650.87;1720871;83;20221;-77
2021/04/13 01:09:09;;;;;;;;;;;;;;;8.71;74.73;100659.35;1727952;81;21237;-77
2021/04/13 01:11:42;;;;;;;;;;;;;;;8.69;74.77;100657.77;1698269;83;20228;-77
2021/04/13 01:14:10;;;;;;;;;;;;;;;8.68;74.84;100665.27;1688492;83;22845;-78
2021/04/13 01:16:45;;;;;;;;;;;;;;;8.66;74.92;100661.91;1693685;84;20236;-79
2021/04/13 01:19:33;;;;;;;;;;;;;;;8.64;74.94;100662.02;1690168;83;20244;-78
2021/04/13 01:22:09;;;;;;;;;;;;;;;8.64;74.98;100654.59;1661060;84;20515;-78
2021/04/13 01:24:39;;;;;;;;;;;;;;;8.63;75.02;100662.12;1677385;84;20266;-81
2021/04/13 01:27:10;;;;;;;;;;;;;;;8.62;75.03;100652.54;1680436;85;20291;-82
2021/04/13 01:29:38;;;;;;;;;;;;;;;8.64;75.03;100654.59;1684893;83;20366;-82
2021/04/13 01:32:06;;;;;;;;;;;;;;;8.65;75.00;100656.27;1693120;84;20239;-82
2021/04/13 01:34:56;;;;;;;;;;;;;;;8.66;74.98;100652.69;1696903;84;20467;-82
2021/04/13 01:40:16;;;;;;;;;;;;;;;8.66;75.01;100655.33;1622763;87;20391;-81
2021/04/13 01:42:33;;;;;;;;;;;;;;;8.64;75.00;100650.64;1675269;84;20397;-81
2021/04/13 01:45:12;;;;;;;;;;;;;;;8.65;74.98;100658.43;1697102;84;20844;-80
2021/04/13 01:47:40;;;;;;;;;;;;;;;8.64;74.98;100658.54;1698788;83;20457;-81
2021/04/13 01:50:15;;;;;;;;;;;;;;;8.64;74.97;100654.59;1697433;83;20265;-79
2021/04/13 01:52:46;;;;;;;;;;;;;;;8.63;74.99;100661.65;1691872;84;23125;-82
2021/04/13 01:55:17;;;;;;;;;;;;;;;8.62;75.00;100656.48;1689308;84;20458;-81
2021/04/13 01:58:20;;;;;;;;;;;;;;;8.62;75.02;100655.17;1696405;83;20225;-81
2021/04/13 02:00:52;;;;;;;;;;;;;;;8.62;75.02;100657.33;1696895;83;21483;-81
2021/04/13 02:03:30;;;;;;;;;;;;;;;8.60;75.04;100645.59;1691521;84;20231;-79
2021/04/13 02:06:01;;;;;;;;;;;;;;;8.58;75.08;100647.45;1690445;84;21924;-76
2021/04/13 02:08:36;;;;;;;;;;;;;;;8.57;75.10;100648.88;1675691;84;21380;-76
2021/04/13 02:11:12;;;;;;;;;;;;;;;8.57;75.12;100642.30;1702353;83;20466;-74
2021/04/13 02:13:43;;;;;;;;;;;;;;;8.57;75.12;100640.51;1707171;83;20211;-75
2021/04/13 02:16:14;;;;;;;;;;;;;;;8.58;75.12;100642.19;1712696;83;20235;-75
2021/04/13 02:18:46;;;;;;;;;;;;;;;8.57;75.16;100639.66;1696258;83;22799;-75
2021/04/13 02:21:20;;;;;;;;;;;;;;;8.55;75.20;100634.51;1697278;83;20378;-78
2021/04/13 02:23:51;;;;;;;;;;;;;;;8.56;75.21;100639.30;1696550;83;20231;-77
2021/04/13 02:26:19;;;;;;;;;;;;;;;8.56;75.24;100636.66;1690595;84;20530;-79
2021/04/13 02:28:47;;;;;;;;;;;;;;;8.56;75.26;100648.52;1714305;82;20231;-78
2021/04/13 02:31:36;;;;;;;;;;;;;;;8.55;75.34;100646.35;1720150;83;23150;-77
2021/04/13 02:33:49;;;;;;;;;;;;;;;8.52;75.41;100652.31;1718743;83;21160;-78
2021/04/13 02:36:19;;;;;;;;;;;;;;;8.48;75.51;100645.06;1718600;83;20243;-78
2021/04/13 02:38:49;;;;;;;;;;;;;;;8.46;75.56;100644.33;1716360;82;20243;-77
2021/04/13 02:41:20;;;;;;;;;;;;;;;8.44;75.67;100647.55;1717871;82;20220;-77
2021/04/13 02:43:50;;;;;;;;;;;;;;;8.44;75.72;100640.96;1720590;83;22067;-76
2021/04/13 02:46:27;;;;;;;;;;;;;;;8.46;75.77;100642.17;1708603;83;20373;-78
2021/04/13 02:49:04;;;;;;;;;;;;;;;8.45;75.80;100640.02;1717947;82;20224;-79
2021/04/13 02:51:32;;;;;;;;;;;;;;;8.46;75.83;100644.33;1718778;83;20479;-78
2021/04/13 02:54:00;;;;;;;;;;;;;;;8.47;75.85;100639.44;1719306;83;20227;-78
2021/04/13 02:56:35;;;;;;;;;;;;;;;8.48;75.84;100645.06;1720608;83;21978;-82
2021/04/13 02:59:16;;;;;;;;;;;;;;;8.49;75.84;100634.06;1709878;82;20819;-81
2021/04/13 03:01:56;;;;;;;;;;;;;;;8.49;75.86;100638.02;1716592;83;20406;-79
2021/04/13 03:04:23;;;;;;;;;;;;;;;8.51;75.85;100640.09;1714878;82;20464;-78
2021/04/13 03:06:52;;;;;;;;;;;;;;;8.51;75.83;100640.94;1713283;82;20219;-78
2021/04/13 03:09:23;;;;;;;;;;;;;;;8.52;75.84;100636.52;1718269;82;22124;-81
2021/04/13 03:11:58;;;;;;;;;;;;;;;8.52;75.84;100639.14;1704912;83;20373;-81
2021/04/13 03:14:26;;;;;;;;;;;;;;;8.55;75.82;100645.52;1692803;83;20224;-80
2021/04/13 03:16:55;;;;;;;;;;;;;;;8.57;75.79;100647.09;1693064;83;21609;-79
2021/04/13 03:19:24;;;;;;;;;;;;;;;8.58;75.80;100647.93;1687455;83;20231;-79
2021/04/13 03:21:54;;;;;;;;;;;;;;;8.58;75.80;100649.25;1690465;83;22907;-79
2021/04/13 03:24:24;;;;;;;;;;;;;;;8.57;75.83;100647.09;1691915;84;20268;-79
2021/04/13 03:26:54;;;;;;;;;;;;;;;8.57;75.81;100647.56;1691416;83;20755;-80
2021/04/13 03:29:30;;;;;;;;;;;;;;;8.57;75.83;100642.30;1691609;83;20310;-81
2021/04/13 03:31:58;;;;;;;;;;;;;;;8.57;75.90;100645.77;1687869;83;20239;-79
2021/04/13 03:34:26;;;;;;;;;;;;;;;8.58;75.92;100645.30;1687376;83;22508;-80
2021/04/13 03:36:54;;;;;;;;;;;;;;;8.59;75.97;100644.37;1693188;83;21629;-80
2021/04/13 03:39:27;;;;;;;;;;;;;;;8.60;75.99;100643.43;1685061;83;20227;-80
2021/04/13 03:41:54;;;;;;;;;;;;;;;8.60;75.99;100645.59;1684105;84;20322;-76
2021/04/13 03:44:21;;;;;;;;;;;;;;;8.61;76.04;100646.44;1689914;84;20232;-76
2021/04/13 03:46:49;;;;;;;;;;;;;;;8.61;76.09;100649.06;1691512;83;22809;-76
2021/04/13 03:49:24;;;;;;;;;;;;;;;8.63;76.14;100638.42;1688926;83;20278;-80
2021/04/13 03:51:54;;;;;;;;;;;;;;;8.63;76.22;100641.06;1690420;84;20319;-80
2021/04/13 03:54:24;;;;;;;;;;;;;;;8.63;76.30;100641.06;1682947;84;20457;-78
2021/04/13 03:56:52;;;;;;;;;;;;;;;8.62;76.38;100634.95;1691229;84;20410;-79
2021/04/13 03:59:22;;;;;;;;;;;;;;;8.64;76.43;100633.05;1690226;83;22202;-79
2021/04/13 04:01:51;;;;;;;;;;;;;;;8.66;76.47;100635.58;1691538;83;20247;-80
2021/04/13 04:04:32;;;;;;;;;;;;;;;8.68;76.55;100639.78;1691152;84;20267;-74
2021/04/13 04:07:05;;;;;;;;;;;;;;;8.70;76.59;100641.86;1686260;83;20910;-77
2021/04/13 04:09:35;;;;;;;;;;;;;;;8.72;76.64;100639.12;1687119;83;20227;-79
2021/04/13 04:12:17;;;;;;;;;;;;;;;8.74;76.66;100643.33;1698718;83;22576;-75
2021/04/13 04:15:00;;;;;;;;;;;;;;;8.75;76.72;100634.95;1697777;84;20377;-76
2021/04/13 04:17:32;;;;;;;;;;;;;;;8.76;76.79;100641.91;1697706;84;20323;-78
2021/04/13 04:20:06;;;;;;;;;;;;;;;8.79;76.79;100646.98;1694301;83;20314;-73
2021/04/13 04:22:39;;;;;;;;;;;;;;;8.81;76.77;100649.05;1696337;84;20225;-73
2021/04/13 04:25:19;;;;;;;;;;;;;;;8.85;76.77;100647.88;1682567;85;22098;-75
2021/04/13 04:27:46;;;;;;;;;;;;;;;8.86;76.81;100642.97;1683291;84;20834;-75
2021/04/13 04:30:23;;;;;;;;;;;;;;;8.90;76.86;100641.83;1675473;85;20283;-74
2021/04/13 04:32:51;;;;;;;;;;;;;;;8.91;76.89;100639.56;1668533;84;20446;-75
2021/04/13 04:35:38;;;;;;;;;;;;;;;8.91;77.00;100638.25;1678153;84;20545;-76
2021/04/13 04:38:08;;;;;;;;;;;;;;;8.91;77.09;100636.93;1696002;83;21844;-75
2021/04/13 04:40:51;;;;;;;;;;;;;;;8.91;77.19;100635.61;1668880;84;20387;-77
2021/04/13 04:43:20;;;;;;;;;;;;;;;8.90;77.27;100633.93;1649670;86;20459;-77
2021/04/13 04:45:49;;;;;;;;;;;;;;;8.91;77.38;100634.30;1663030;85;20911;-78
2021/04/13 04:48:25;;;;;;;;;;;;;;;8.93;77.48;100634.19;1649573;85;20769;-78
2021/04/13 04:50:58;;;;;;;;;;;;;;;8.92;77.55;100633.34;1683675;84;22530;-77
2021/04/13 04:53:27;;;;;;;;;;;;;;;8.92;77.66;100632.50;1683171;84;20259;-76
2021/04/13 04:55:55;;;;;;;;;;;;;;;8.92;77.71;100633.81;1682646;84;20498;-77
2021/04/13 04:58:23;;;;;;;;;;;;;;;8.92;77.78;100627.23;1683383;85;20444;-78
2021/04/13 05:00:51;;;;;;;;;;;;;;;8.96;77.77;100632.65;1683429;84;20493;-78
2021/04/13 05:03:18;;;;;;;;;;;;;;;8.97;77.82;100623.31;1682869;84;22984;-78
2021/04/13 05:05:46;;;;;;;;;;;;;;;9.01;77.79;100631.40;1682899;85;20493;-78
2021/04/13 05:08:14;;;;;;;;;;;;;;;9.03;77.81;100626.02;1682922;84;20794;-79
2021/04/13 05:10:41;;;;;;;;;;;;;;;9.05;77.82;100621.48;1681150;85;21477;-78
2021/04/13 05:13:10;;;;;;;;;;;;;;;9.05;77.81;100628.91;1687291;84;20298;-78
2021/04/13 05:15:37;;;;;;;;;;;;;;;9.03;77.87;100628.66;1706375;82;22080;-79
2021/04/13 05:18:05;;;;;;;;;;;;;;;8.98;77.95;100625.03;1711495;82;20381;-79
2021/04/13 05:20:32;;;;;;;;;;;;;;;8.96;78.05;100626.06;1732687;82;20218;-78
2021/04/13 05:23:00;;;;;;;;;;;;;;;8.95;78.14;100626.54;1713110;82;20260;-76
2021/04/13 05:25:29;;;;;;;;;;;;;;;8.94;78.25;100626.65;1731801;81;20277;-76
2021/04/13 05:27:56;;;;;;;;;;;;;;;8.95;78.33;100621.27;1733057;81;22573;-76
2021/04/13 05:30:25;;;;;;;;;;;;;;;8.99;78.37;100625.88;1732125;81;20433;-75
2021/04/13 05:32:52;;;;;;;;;;;;;;;9.03;78.39;100619.43;1734554;82;20246;-76
2021/04/13 05:35:20;;;;;;;;;;;;;;;9.08;78.41;100623.92;1734800;82;20453;-76
2021/04/13 05:37:48;;;;;;;;;;;;;;;9.13;78.40;100617.84;1734847;81;20218;-76
2021/04/13 05:40:23;;;;;;;;;;;;;;;9.18;78.36;100618.38;1734609;81;22056;-77
2021/04/13 05:42:51;;;;;;;;;;;;;;;9.19;78.33;100618.75;1734300;81;20348;-76
2021/04/13 05:45:18;;;;;;;;;;;;;;;9.23;78.30;100614.09;1733850;81;20282;-75
2021/04/13 05:47:47;;;;;;;;;;;;;;;9.28;78.29;100608.04;1734073;82;20987;-76
2021/04/13 05:50:27;;;;;;;;;;;;;;;9.32;78.22;100609.50;1734643;81;20214;-76
2021/04/13 05:52:54;;;;;;;;;;;;;;;9.35;78.15;100610.59;1734547;81;22068;-76
2021/04/13 05:55:22;;;;;;;;;;;;;;;9.39;78.10;100609.44;1728262;81;20297;-75
2021/04/13 05:57:51;;;;;;;;;;;;;;;9.47;78.03;100612.38;1732249;82;20306;-75
2021/04/13 06:00:20;;;;;;;;;;;;;;;9.53;77.91;100613.24;1727783;81;20471;-78
2021/04/13 06:02:47;;;;;;;;;;;;;;;9.54;77.77;100612.28;1729744;82;20210;-79
2021/04/13 06:05:15;;;;;;;;;;;;;;;9.56;77.66;100618.80;1733988;81;22831;-77
2021/04/13 06:07:44;;;;;;;;;;;;;;;9.56;77.58;100617.00;1731495;82;20343;-76
2021/04/13 06:10:13;;;;;;;;;;;;;;;9.56;77.52;100620.11;1732852;81;21038;-77
2021/04/13 06:12:41;;;;;;;;;;;;;;;9.60;77.52;100617.14;1733442;81;20337;-78
2021/04/13 06:15:09;;;;;;;;;;;;;;;9.65;77.43;100622.06;1710528;83;20272;-81
2021/04/13 06:17:36;;;;;;;;;;;;;;;9.65;77.24;100617.66;1709692;84;22997;-79
2021/04/13 06:20:05;;;;;;;;;;;;;;;9.65;77.13;100623.38;1710403;84;20217;-79
2021/04/13 06:22:32;;;;;;;;;;;;;;;9.64;77.02;100625.19;1706566;84;20217;-79
2021/04/13 06:25:00;;;;;;;;;;;;;;;9.67;77.00;100621.03;1708138;84;20925;-80
2021/04/13 06:27:27;;;;;;;;;;;;;;;9.69;76.86;100620.91;1731108;81;20514;-79
2021/04/13 06:29:54;;;;;;;;;;;;;;;9.72;76.77;100621.52;1708311;82;21919;-79
2021/04/13 06:32:24;;;;;;;;;;;;;;;9.77;76.66;100626.48;1708907;82;21306;-76
2021/04/13 06:34:52;;;;;;;;;;;;;;;9.81;76.53;100629.73;1707219;82;20216;-77
2021/04/13 06:37:19;;;;;;;;;;;;;;;9.86;76.37;100619.70;1708327;82;21233;-73
2021/04/13 06:39:47;;;;;;;;;;;;;;;9.90;76.10;100622.47;1707218;82;20941;-80
2021/04/13 06:42:24;;;;;;;;;;;;;;;9.92;75.85;100624.04;1706553;84;23152;-78
2021/04/13 06:45:10;;;;;;;;;;;;;;;9.99;75.75;100631.04;1707903;84;20398;-76
2021/04/13 06:48:07;;;;;;;;;;;;;;;10.02;75.45;100619.77;1708398;84;20229;-78
2021/04/13 06:50:58;;;;;;;;;;;;;;;10.03;75.21;100628.53;1705814;84;21095;-76
2021/04/13 06:53:48;;;;;;;;;;;;;;;10.07;75.04;100630.01;1708275;82;20213;-82
2021/04/13 06:56:45;;;;;;;;;;;;;;;10.11;74.77;100634.58;1707974;84;22153;-75
2021/04/13 06:59:32;;;;;;;;;;;;;;;10.11;74.62;100628.81;1684407;84;20384;-76
2021/04/13 07:02:00;;;;;;;;;;;;;;;10.13;74.53;100630.02;1700361;84;20259;-75
2021/04/13 07:04:38;;;;;;;;;;;;;;;10.19;74.45;100626.94;1702709;84;20469;-76
2021/04/13 07:07:18;;;;;;;;;;;;;;;10.24;74.31;100632.29;1710352;83;20219;-76
2021/04/13 07:09:57;;;;;;;;;;;;;;;10.30;74.17;100630.98;1708797;84;20220;-73
2021/04/13 07:12:39;;;;;;;;;;;;;;;10.36;74.09;100636.30;1708816;84;20556;-72
2021/04/13 07:15:15;;;;;;;;;;;;;;;10.39;74.04;100636.05;1673013;85;20224;-75
2021/04/13 07:18:03;;;;;;;;;;;;;;;10.44;74.03;100640.05;1678671;85;20312;-73
2021/04/13 07:20:33;;;;;;;;;;;;;;;10.48;73.88;100644.14;1676941;85;20406;-73
2021/04/13 07:23:04;;;;;;;;;;;;;;;10.49;73.64;100639.21;1677254;85;22080;-77
2021/04/13 07:25:34;;;;;;;;;;;;;;;10.49;73.51;100639.69;1677269;85;20366;-75
2021/04/13 07:28:08;;;;;;;;;;;;;;;10.49;73.43;100647.61;1677718;85;20310;-76
2021/04/13 07:30:50;;;;;;;;;;;;;;;10.49;73.34;100645.81;1678884;85;20275;-78
2021/04/13 07:33:22;;;;;;;;;;;;;;;10.48;73.17;100641.50;1667141;85;20445;-73
2021/04/13 07:35:50;;;;;;;;;;;;;;;10.47;72.96;100638.97;1678397;85;22069;-72
2021/04/13 07:38:25;;;;;;;;;;;;;;;10.45;72.81;100635.61;1678701;85;20220;-72
2021/04/13 07:41:21;;;;;;;;;;;;;;;10.43;72.71;100637.53;1673689;85;20295;-71
2021/04/13 07:43:57;;;;;;;;;;;;;;;10.42;72.64;100638.45;1676964;85;20442;-72
2021/04/13 07:46:43;;;;;;;;;;;;;;;10.43;72.62;100640.17;1678692;85;20244;-72
2021/04/13 07:49:15;;;;;;;;;;;;;;;10.45;72.50;100642.21;1678556;85;21908;-71
2021/04/13 07:51:55;;;;;;;;;;;;;;;10.43;72.45;100640.17;1677806;85;20383;-72
2021/04/13 07:54:44;;;;;;;;;;;;;;;10.41;72.40;100646.02;1677140;85;20494;-72
2021/04/13 07:57:21;;;;;;;;;;;;;;;10.38;72.20;100644.45;1683175;84;20909;-73
2021/04/13 08:00:14;;;;;;;;;;;;;;;10.33;72.01;100638.69;1682477;85;20285;-73
2021/04/13 08:02:43;;;;;;;;;;;;;;;10.31;71.97;100637.94;1659259;85;22085;-73
2021/04/13 08:05:11;;;;;;;;;;;;;;;10.30;71.83;100633.14;1611487;86;20242;-73
2021/04/13 08:07:43;;;;;;;;;;;;;;;10.28;71.80;100633.73;1691046;84;20238;-73
2021/04/13 08:10:21;;;;;;;;;;;;;;;10.29;71.76;100632.78;1652920;85;20504;-72
2021/04/13 08:12:53;;;;;;;;;;;;;;;10.29;71.68;100639.38;1649198;85;20293;-73
2021/04/13 08:15:41;;;;;;;;;;;;;;;10.27;71.69;100637.81;1674043;85;21264;-73
2021/04/13 08:18:35;;;;;;;;;;;;;;;10.28;71.67;100643.45;1719724;83;20271;-79
2021/04/13 08:21:21;;;;;;;;;;;;;;;10.26;71.66;100636.98;1625516;85;20218;-73
2021/04/13 08:23:50;;;;;;;;;;;;;;;10.25;71.70;100632.66;1711047;84;20493;-73
2021/04/13 08:26:34;;;;;;;;;;;;;;;10.24;71.65;100631.45;1710619;83;20225;-71
2021/04/13 08:29:24;;;;;;;;;;;;;;;10.22;71.72;100631.53;1708812;84;22068;-71
2021/04/13 08:35:14;;;;;;;;;;;;;;;10.22;71.81;100626.73;1708593;83;20415;-72
2021/04/13 08:37:51;;;;;;;;;;;;;;;10.21;71.82;100622.38;1696602;84;20481;-73
2021/04/13 08:40:36;;;;;;;;;;;;;;;10.19;71.79;100619.86;1691613;84;20315;-73
2021/04/13 08:43:23;;;;;;;;;;;;;;;10.17;71.87;100620.46;1690709;83;23069;-72
2021/04/13 08:46:11;;;;;;;;;;;;;;;10.16;71.92;100616.63;1718490;82;20372;-75
2021/04/13 08:48:51;;;;;;;;;;;;;;;10.16;71.96;100622.73;1717675;82;20254;-74
2021/04/13 08:51:40;;;;;;;;;;;;;;;10.17;71.99;100627.06;1649568;85;20448;-72
2021/04/13 08:54:29;;;;;;;;;;;;;;;10.17;72.04;100623.09;1679647;84;20212;-74
2021/04/13 08:57:00;;;;;;;;;;;;;;;10.16;71.99;100624.06;1682219;84;22087;-74
2021/04/13 08:59:45;;;;;;;;;;;;;;;10.17;72.00;100618.30;1682472;84;20375;-72
2021/04/13 09:02:29;;;;;;;;;;;;;;;10.16;72.05;100613.50;1686673;84;20297;-72
2021/04/13 09:05:20;;;;;;;;;;;;;;;10.17;72.06;100610.38;1682878;85;20464;-72
2021/04/13 09:07:51;;;;;;;;;;;;;;;10.19;72.00;100613.74;1687740;84;20223;-74
2021/04/13 09:10:49;;;;;;;;;;;;;;;10.20;71.98;100616.27;1701706;84;23110;-74
2021/04/13 09:13:26;;;;;;;;;;;;;;;10.22;71.94;100615.70;1687705;84;20379;-72
2021/04/13 09:16:09;;;;;;;;;;;;;;;10.24;71.91;100615.61;1680718;84;20410;-72
2021/04/13 09:18:47;;;;;;;;;;;;;;;10.27;71.89;100608.30;1707019;82;20565;-77
2021/04/13 09:21:27;;;;;;;;;;;;;;;10.30;71.78;100609.38;1696833;84;20217;-73
2021/04/13 09:24:19;;;;;;;;;;;;;;;10.31;71.63;100610.22;1705620;84;22084;-73
2021/04/13 09:27:01;;;;;;;;;;;;;;;10.31;71.50;100607.09;1700129;82;20298;-71
2021/04/13 09:29:46;;;;;;;;;;;;;;;10.32;71.37;100611.42;1709944;84;20232;-72
2021/04/13 09:32:32;;;;;;;;;;;;;;;10.36;71.38;100609.89;1710063;84;20474;-70
2021/04/13 09:35:22;;;;;;;;;;;;;;;10.39;71.28;100609.17;1709289;84;20225;-72
2021/04/13 09:38:12;;;;;;;;;;;;;;;10.43;71.15;100607.16;1688056;84;21856;-72
2021/04/13 09:40:47;;;;;;;;;;;;;;;10.49;71.00;100609.33;1710023;84;20232;-71
2021/04/13 09:43:33;;;;;;;;;;;;;;;10.53;70.77;100608.99;1707992;84;20229;-72
2021/04/13 09:46:10;;;;;;;;;;;;;;;10.60;70.60;100598.78;1710110;84;20473;-72
2021/04/13 09:48:56;;;;;;;;;;;;;;;10.67;70.54;100597.37;1710123;84;20417;-69
2021/04/13 09:51:30;;;;;;;;;;;;;;;10.77;70.42;100602.80;1710405;82;21912;-69
2021/04/13 09:54:20;;;;;;;;;;;;;;;10.83;70.12;100598.37;1710034;84;20669;-72
2021/04/13 09:57:00;;;;;;;;;;;;;;;10.88;70.02;100601.00;1707045;84;20237;-73
2021/04/13 09:59:58;;;;;;;;;;;;;;;10.94;70.06;100596.22;1721442;82;20479;-75
2021/04/13 10:02:54;;;;;;;;;;;;;;;10.99;69.98;100597.53;1707833;82;20221;-72
2021/04/13 10:05:30;;;;;;;;;;;;;;;11.06;69.74;100595.26;1703142;84;23095;-72
2021/04/13 10:07:59;;;;;;;;;;;;;;;11.10;69.75;100591.44;1735223;82;20373;-73
2021/04/13 10:11:00;;;;;;;;;;;;;;;11.15;69.79;100585.28;1735424;82;20239;-74
2021/04/13 10:13:57;;;;;;;;;;;;;;;11.21;69.72;100582.17;1679789;85;20537;-75
2021/04/13 10:16:40;;;;;;;;;;;;;;;11.27;69.32;100578.19;1674971;84;20255;-72
2021/04/13 10:19:23;;;;;;;;;;;;;;;11.24;69.09;100583.73;1692459;81;22767;-82
2021/04/13 10:22:17;;;;;;;;;;;;;;;11.23;69.10;100575.44;1732273;83;21370;-75
2021/04/13 10:24:55;;;;;;;;;;;;;;;11.26;68.91;100580.48;1732651;81;20247;-74
2021/04/13 10:27:54;;;;;;;;;;;;;;;11.35;68.88;100585.03;1754175;81;20224;-72
2021/04/13 10:30:40;;;;;;;;;;;;;;;11.44;68.84;100586.47;1724551;83;20268;-72
2021/04/13 10:33:38;;;;;;;;;;;;;;;11.54;68.55;100586.58;1731544;83;22039;-71
2021/04/13 10:36:26;;;;;;;;;;;;;;;11.59;68.08;100588.39;1731919;83;20740;-71
2021/04/13 10:39:27;;;;;;;;;;;;;;;11.58;67.99;100588.48;1731817;83;20218;-73
2021/04/13 10:42:23;;;;;;;;;;;;;;;11.58;67.93;100588.03;1655133;86;20475;-72
2021/04/13 10:45:27;;;;;;;;;;;;;;;11.59;67.85;100591.03;1654843;86;20564;-74
2021/04/13 10:48:39;;;;;;;;;;;;;;;11.55;67.76;100579.00;1650074;86;22425;-76
2021/04/13 10:51:35;;;;;;;;;;;;;;;11.54;67.68;100583.09;1654175;86;20384;-73
2021/04/13 10:54:28;;;;;;;;;;;;;;;11.45;67.52;100587.31;1650923;86;20438;-73
2021/04/13 10:57:33;;;;;;;;;;;;;;;11.32;67.55;100589.26;1654876;86;20478;-76
2021/04/13 11:00:10;;;;;;;;;;;;;;;11.24;67.71;100589.02;1651056;86;20227;-77
2021/04/13 11:03:04;;;;;;;;;;;;;;;11.19;67.86;100588.04;1655251;86;21972;-76
2021/04/13 11:06:02;;;;;;;;;;;;;;;11.14;67.95;100587.09;1654158;86;20530;-75
2021/04/13 11:09:05;;;;;;;;;;;;;;;11.08;68.12;100592.84;1653841;87;20275;-76
2021/04/13 11:12:08;;;;;;;;;;;;;;;11.02;68.29;100592.02;1646709;86;20478;-76
2021/04/13 11:14:43;;;;;;;;;;;;;;;10.94;68.44;100589.13;1653122;86;20521;-73
2021/04/13 11:17:42;;;;;;;;;;;;;;;10.85;68.77;100591.16;1640124;86;21911;-73
2021/04/13 11:20:39;;;;;;;;;;;;;;;10.77;68.98;100594.38;1640932;85;21094;-72
2021/04/13 11:23:36;;;;;;;;;;;;;;;10.72;69.13;100593.07;1640209;86;20231;-73
2021/04/13 11:26:10;;;;;;;;;;;;;;;10.69;69.31;100593.28;1614134;87;20937;-73
2021/04/13 11:28:58;;;;;;;;;;;;;;;10.68;69.46;100586.32;1629372;86;20138;-72
2021/04/13 11:32:02;;;;;;;;;;;;;;;10.68;69.56;100592.44;1639485;85;21916;-73
2021/04/13 11:34:37;;;;;;;;;;;;;;;10.63;69.60;100588.48;1632512;86;20813;-74
2021/04/13 11:37:29;;;;;;;;;;;;;;;10.56;69.71;100588.94;1633182;86;20224;-74
2021/04/13 11:40:21;;;;;;;;;;;;;;;10.54;69.86;100592.19;1655822;86;20589;-74
2021/04/13 11:42:49;;;;;;;;;;;;;;;10.52;70.07;100587.98;1668061;86;20213;-72
2021/04/13 11:45:39;;;;;;;;;;;;;;;10.51;70.19;100583.16;1644974;86;22079;-74
2021/04/13 11:48:18;;;;;;;;;;;;;;;10.51;70.30;100582.31;1665957;85;21394;-74
2021/04/13 11:51:10;;;;;;;;;;;;;;;10.49;70.36;100582.44;1649095;86;20227;-73
2021/04/13 11:53:39;;;;;;;;;;;;;;;10.52;70.45;100585.34;1642149;86;20483;-74
2021/04/13 11:56:26;;;;;;;;;;;;;;;10.54;70.51;100578.14;1652762;86;20221;-72
2021/04/13 11:59:16;;;;;;;;;;;;;;;10.56;70.44;100581.50;1665631;86;21906;-73
2021/04/13 12:01:49;;;;;;;;;;;;;;;10.58;70.40;100580.89;1630236;88;21043;-74
2021/04/13 12:04:18;;;;;;;;;;;;;;;10.60;70.30;100583.77;1671574;85;20301;-73
2021/04/13 12:06:54;;;;;;;;;;;;;;;10.62;70.22;100579.72;1676200;84;20483;-73
2021/04/13 12:09:42;;;;;;;;;;;;;;;10.62;70.06;100580.20;1656777;85;20482;-73
2021/04/13 12:12:33;;;;;;;;;;;;;;;10.60;70.05;100581.61;1633131;87;22052;-74
2021/04/13 12:15:07;;;;;;;;;;;;;;;10.55;70.11;100571.41;1655456;86;20273;-73
2021/04/13 12:17:42;;;;;;;;;;;;;;;10.57;70.16;100579.22;1659999;86;20245;-73
2021/04/13 12:20:34;;;;;;;;;;;;;;;10.60;69.95;100582.94;1660094;85;20544;-73
2021/04/13 12:23:15;;;;;;;;;;;;;;;10.60;69.71;100573.69;1659970;85;20236;-81
2021/04/13 12:25:52;;;;;;;;;;;;;;;10.62;69.49;100576.24;1660034;86;22071;-73
2021/04/13 12:28:37;;;;;;;;;;;;;;;10.64;69.30;100565.91;1659750;86;20343;-74
2021/04/13 12:31:22;;;;;;;;;;;;;;;10.67;69.04;100568.31;1656339;85;20227;-77
2021/04/13 12:33:57;;;;;;;;;;;;;;;10.72;68.96;100560.89;1660513;85;20316;-78
2021/04/13 12:36:45;;;;;;;;;;;;;;;10.75;69.24;100567.73;1650489;85;20249;-76
2021/04/13 12:39:42;;;;;;;;;;;;;;;10.72;69.37;100564.85;1660001;85;21990;-75
2021/04/13 12:42:28;;;;;;;;;;;;;;;10.73;69.45;100561.25;1644685;85;20387;-74
2021/04/13 12:45:22;;;;;;;;;;;;;;;10.73;69.39;100559.92;1651818;86;20505;-73
2021/04/13 12:47:55;;;;;;;;;;;;;;;10.75;69.37;100549.23;1652223;87;20484;-73
2021/04/13 12:50:27;;;;;;;;;;;;;;;10.78;69.36;100545.02;1649161;85;20248;-74
2021/04/13 12:52:55;;;;;;;;;;;;;;;10.81;69.34;100547.45;1650472;87;22094;-74
2021/04/13 12:55:26;;;;;;;;;;;;;;;10.83;69.34;100549.00;1653168;87;20662;-73
2021/04/13 12:57:59;;;;;;;;;;;;;;;10.85;69.38;100550.20;1651488;86;20520;-76
2021/04/13 13:00:32;;;;;;;;;;;;;;;10.87;69.44;100546.47;1653192;87;21759;-78
2021/04/13 13:03:21;;;;;;;;;;;;;;;10.87;69.52;100537.70;1638239;87;20258;-77
2021/04/13 13:05:49;;;;;;;;;;;;;;;10.89;69.57;100537.09;1652660;87;22594;-77
2021/04/13 13:08:20;;;;;;;;;;;;;;;10.98;69.68;100535.55;1649229;87;20497;-77
2021/04/13 13:10:55;;;;;;;;;;;;;;;11.10;69.84;100529.31;1613891;88;20254;-77
2021/04/13 13:13:27;;;;;;;;;;;;;;;11.27;69.89;100523.98;1615854;87;21367;-76
2021/04/13 13:15:55;;;;;;;;;;;;;;;11.47;69.70;100532.48;1606658;88;20255;-77
2021/04/13 13:18:32;;;;;;;;;;;;;;;11.67;69.58;100533.50;1673621;85;22790;-77
2021/04/13 13:21:05;;;;;;;;;;;;;;;11.82;69.11;100531.46;1667134;85;20558;-78
2021/04/13 13:23:44;;;;;;;;;;;;;;;11.94;68.64;100530.44;1664921;85;20223;-77
2021/04/13 13:26:14;;;;;;;;;;;;;;;12.07;68.19;100527.64;1660880;85;20992;-80
2021/04/13 13:28:45;;;;;;;;;;;;;;;12.20;67.79;100528.29;1651381;85;20283;-77
2021/04/13 13:31:27;;;;;;;;;;;;;;;12.32;67.41;100523.28;1651740;87;22052;-76
2021/04/13 13:34:03;;;;;;;;;;;;;;;12.43;66.79;100511.77;1607837;88;20257;-76
2021/04/13 13:36:33;;;;;;;;;;;;;;;12.49;66.38;100512.59;1625109;86;20293;-75
2021/04/13 13:39:03;;;;;;;;;;;;;;;12.56;66.00;100508.45;1664329;85;20549;-74